| Date | Time | Temp. (oF) | Dew Point (oF) | Rel. Hum. (%) | Press. (in.) | Wind Dir. | Wind Speed (mph) | Hourly Rainfall (in.) |
|
|---|---|---|---|---|---|---|---|---|---|
| 1 | 04/09 | 00:00 | 51 | 35 | 56 | 29.86 | SW | 3 | 0.00 |
| 2 | 04/08 | 23:00 | 53 | 35 | 52 | 29.87 | NW | 5 | 0.00 |
| 3 | 04/08 | 22:00 | 55 | 34 | 46 | 29.86 | W | 21 | 0.00 |
| 4 | 04/08 | 21:00 | 57 | 33 | 41 | 29.85 | N | 13 | 0.00 |
| 5 | 04/08 | 20:00 | 58 | 37 | 47 | 29.82 | W | 6 | 0.00 |
| 6 | 04/08 | 19:00 | 62 | 39 | 43 | 29.79 | WSW | 13 | 0.00 |
| 7 | 04/08 | 18:00 | 66 | 33 | 30 | 29.75 | NW | 4 | 0.00 |
| 8 | 04/08 | 17:00 | 66 | 25 | 22 | 29.75 | WNW | 16 | 0.00 |
| 9 | 04/08 | 16:00 | 67 | 28 | 24 | 29.75 | NW | 6 | 0.00 |
| 10 | 04/08 | 15:00 | 66 | 33 | 30 | 29.80 | W | 11 | 0.00 |
| 11 | 04/08 | 14:00 | 64 | 31 | 30 | 29.84 | WSW | 6 | 0.00 |
| 12 | 04/08 | 13:00 | 63 | 32 | 32 | 29.88 | N | 16 | 0.00 |
| 13 | 04/08 | 12:00 | 60 | 29 | 31 | 29.91 | NW | 10 | 0.00 |
| 14 | 04/08 | 11:00 | 56 | 25 | 31 | 29.95 | NNW | 11 | 0.00 |
| 15 | 04/08 | 10:00 | 54 | 27 | 36 | 29.99 | NW | 10 | 0.00 |
| 16 | 04/08 | 09:00 | 50 | 30 | 48 | 30.01 | WNW | 5 | 0.00 |
| 17 | 04/08 | 08:00 | 41 | 30 | 67 | 30.03 | SW | 2 | 0.00 |
| 18 | 04/08 | 07:00 | 35 | 29 | 80 | 30.03 | N | 0 | 0.00 |
| 19 | 04/08 | 06:00 | 36 | 29 | 78 | 30.02 | WNW | 1 | 0.00 |
| 20 | 04/08 | 05:00 | 34 | 30 | 86 | 30.03 | NNW | 1 | 0.00 |
| 21 | 04/08 | 04:00 | 35 | 30 | 82 | 30.04 | WSW | 1 | 0.00 |
| 22 | 04/08 | 03:00 | 36 | 29 | 78 | 30.04 | W | 3 | 0.00 |
| 23 | 04/08 | 02:00 | 39 | 29 | 68 | 30.07 | WSW | 0 | 0.00 |
| 24 | 04/08 | 01:00 | 44 | 22 | 42 | 30.09 | WNW | 3 | 0.00 |